Time;durP1;ratioP1;P1;durP2;ratioP2;P2;SDS_P1;SDS_P2;PMS_P1;PMS_P2;Temp;Humidity;BMP_temperature;BMP_pressure;BME280_temperature;BME280_humidity;BME280_pressure;Samples;Min_cycle;Max_cycle;Signal;HPM_P1;HPM_P2
2021/12/03 05:03:29;;;;;;;18.50;12.77;;;;;;;7.49;71.10;99350.97;5589539;31;107402;-57
2021/12/03 05:06:52;;;;;;;16.75;12.82;;;;;;;7.49;71.10;99350.97;5595186;31;34407;-58
2021/12/03 05:09:54;;;;;;;16.12;13.00;;;;;;;6.81;73.73;99367.87;5583590;31;35117;-58
2021/12/03 05:13:02;;;;;;;17.83;12.55;;;;;;;6.86;72.54;99371.59;5583417;32;33158;-57
2021/12/03 05:16:05;;;;;;;18.58;12.13;;;;;;;6.76;73.12;99375.94;5583505;31;33264;-57
2021/12/03 05:19:08;;;;;;;18.73;13.62;;;;;;;7.15;71.76;99383.06;5583462;31;33647;-57
2021/12/03 05:22:12;;;;;;;20.00;14.20;;;;;;;7.12;70.61;99396.12;5582583;31;34206;-57
2021/12/03 05:25:14;;;;;;;20.10;14.43;;;;;;;7.04;70.45;99410.88;5583615;31;33883;-57
2021/12/03 05:28:17;;;;;;;18.85;13.55;;;;;;;6.99;70.91;99403.72;5582385;31;33533;-57
2021/12/03 05:31:23;;;;;;;20.85;13.73;;;;;;;6.89;69.77;99400.31;5583362;32;34375;-57
2021/12/03 05:34:26;;;;;;;20.62;14.07;;;;;;;6.80;69.88;99414.25;5582822;31;33684;-57
2021/12/03 05:37:28;;;;;;;22.62;14.57;;;;;;;6.60;69.45;99427.72;5583079;31;33765;-57
2021/12/03 05:40:31;;;;;;;22.25;14.18;;;;;;;6.45;68.41;99441.91;5583393;31;33775;-57
2021/12/03 05:43:34;;;;;;;20.65;13.50;;;;;;;6.43;68.24;99448.59;5585275;31;34366;-57
2021/12/03 05:46:36;;;;;;;18.75;12.37;;;;;;;6.38;67.85;99462.72;5583174;31;33304;-57
2021/12/03 05:49:38;;;;;;;19.58;12.93;;;;;;;6.45;68.50;99471.19;5582388;31;33605;-57
2021/12/03 05:52:41;;;;;;;18.92;12.18;;;;;;;6.47;66.75;99481.59;5579980;31;33664;-57
2021/12/03 05:55:44;;;;;;;22.05;12.18;;;;;;;6.52;65.28;99502.84;5588134;31;32293;-57
2021/12/03 05:58:48;;;;;;;17.58;11.18;;;;;;;6.33;65.32;99521.34;5585861;31;33986;-57
2021/12/03 06:01:51;;;;;;;18.30;11.05;;;;;;;6.35;65.62;99521.84;5578171;31;33533;-57
2021/12/03 06:04:53;;;;;;;17.50;11.63;;;;;;;6.12;64.49;99531.25;5579436;31;33583;-57
2021/12/03 06:07:57;;;;;;;17.48;10.52;;;;;;;6.22;69.86;99549.81;5582407;31;33765;-57
2021/12/03 06:10:59;;;;;;;16.87;10.13;;;;;;;6.06;63.35;99557.09;5581707;31;33608;-57
2021/12/03 06:14:01;;;;;;;15.60;9.38;;;;;;;6.16;64.61;99556.25;5572227;31;33589;-57
2021/12/03 06:17:04;;;;;;;13.30;8.32;;;;;;;6.16;62.59;99561.59;5569373;31;33667;-57
2021/12/03 06:20:10;;;;;;;19.37;9.00;;;;;;;6.10;60.72;99573.31;5567158;31;34264;-57
2021/12/03 06:23:12;;;;;;;18.17;9.77;;;;;;;6.11;59.98;99572.22;5566412;31;33641;-57
2021/12/03 06:26:14;;;;;;;17.35;8.10;;;;;;;6.21;60.59;99574.84;5568538;31;34169;-57
2021/12/03 06:29:17;;;;;;;14.85;7.87;;;;;;;6.23;59.84;99586.03;5567830;31;33657;-57
2021/12/03 06:32:19;;;;;;;12.88;7.10;;;;;;;6.40;59.19;99576.94;5561303;32;33673;-57
2021/12/03 06:35:22;;;;;;;11.38;6.80;;;;;;;6.31;57.29;99596.13;5564087;32;32978;-57
2021/12/03 06:38:25;;;;;;;13.60;7.10;;;;;;;6.29;58.24;99597.44;5571084;31;33653;-57
2021/12/03 06:41:28;;;;;;;10.23;5.95;;;;;;;6.13;57.94;99615.34;5565130;32;33648;-57
2021/12/03 06:44:31;;;;;;;11.50;6.07;;;;;;;6.15;58.09;99628.37;5566065;31;34298;-57
2021/12/03 06:47:34;;;;;;;11.45;5.75;;;;;;;6.01;57.05;99642.22;5573491;31;34369;-57
2021/12/03 06:50:37;;;;;;;9.57;5.30;;;;;;;5.85;56.51;99651.25;5566267;31;33646;-57
2021/12/03 06:53:54;;;;;;;11.07;5.53;;;;;;;6.12;58.92;99643.00;5575759;31;32566;-57
2021/12/03 06:56:57;;;;;;;13.60;5.30;;;;;;;5.98;55.38;99647.28;5567448;31;34207;-57
2021/12/03 06:59:59;;;;;;;11.52;5.32;;;;;;;5.88;56.34;99656.81;5586061;31;33632;-57
2021/12/03 07:03:01;;;;;;;11.07;5.37;;;;;;;5.88;55.52;99662.16;5574585;31;33380;-58
2021/12/03 07:06:04;;;;;;;9.65;4.90;;;;;;;5.96;56.24;99663.53;5569028;32;33526;-57
2021/12/03 07:09:07;;;;;;;11.15;5.10;;;;;;;5.94;55.14;99680.81;5569105;31;34039;-57
2021/12/03 07:12:10;;;;;;;9.10;4.57;;;;;;;5.95;54.32;99688.50;5565255;31;33565;-56
2021/12/03 07:15:13;;;;;;;11.27;5.10;;;;;;;6.45;65.90;99700.19;5549551;32;33653;-58
2021/12/03 07:18:16;;;;;;;11.40;4.68;;;;;;;6.59;57.59;99711.87;5559496;31;34277;-58
2021/12/03 07:21:18;;;;;;;9.35;4.68;;;;;;;6.54;52.65;99716.41;5568296;32;33609;-57
2021/12/03 07:24:21;;;;;;;13.35;4.55;;;;;;;6.16;52.51;99739.06;5553142;31;33724;-57
2021/12/03 07:27:25;;;;;;;9.13;4.65;;;;;;;6.08;54.49;99748.38;5569680;31;33668;-57
2021/12/03 07:30:31;;;;;;;8.38;4.65;;;;;;;6.18;58.18;99755.56;5574823;31;34380;-57
2021/12/03 07:33:33;;;;;;;10.40;5.00;;;;;;;6.08;52.52;99765.16;5568893;31;33577;-57
2021/12/03 07:36:36;;;;;;;11.12;4.25;;;;;;;6.29;55.10;99773.13;5568351;32;33644;-57
2021/12/03 07:39:39;;;;;;;11.38;4.47;;;;;;;6.46;53.66;99794.19;5568864;32;33591;-57
2021/12/03 07:42:42;;;;;;;10.07;4.05;;;;;;;6.68;54.28;99802.66;5569326;31;34287;-56
2021/12/03 07:45:48;;;;;;;10.80;4.12;;;;;;;6.97;54.95;99813.56;5552790;32;34251;-57
2021/12/03 07:48:51;;;;;;;11.07;4.10;;;;;;;6.59;53.05;99829.06;5570649;31;33763;-57
2021/12/03 07:51:54;;;;;;;9.40;3.85;;;;;;;6.87;54.75;99832.22;5577850;31;33787;-57
2021/12/03 07:54:56;;;;;;;6.97;3.87;;;;;;;6.86;53.76;99837.84;5575836;31;35115;-57
2021/12/03 07:57:58;;;;;;;9.32;4.20;;;;;;;7.41;60.73;99831.56;5567327;31;33563;-57
2021/12/03 08:01:01;;;;;;;6.82;3.42;;;;;;;6.90;62.63;99842.34;5568206;31;33578;-57
2021/12/03 08:04:04;;;;;;;9.48;4.80;;;;;;;6.77;51.41;99853.56;5568343;31;33770;-57
2021/12/03 08:07:06;;;;;;;9.35;4.10;;;;;;;6.85;56.44;99876.19;5564374;31;33673;-57
2021/12/03 08:10:08;;;;;;;11.65;3.80;;;;;;;7.01;56.17;99894.56;5568033;32;33417;-56
2021/12/03 08:13:11;;;;;;;8.73;4.03;;;;;;;7.05;65.37;99894.81;5585920;31;34276;-58
2021/12/03 08:16:14;;;;;;;8.15;3.87;;;;;;;7.52;66.98;99905.12;5577265;31;33610;-58
2021/12/03 08:19:16;;;;;;;8.38;3.58;;;;;;;7.38;51.35;99909.41;5569571;31;33186;-57
2021/12/03 08:22:20;;;;;;;6.93;3.47;;;;;;;7.22;52.05;99907.88;5587920;31;33673;-57
2021/12/03 08:25:24;;;;;;;8.38;4.37;;;;;;;7.37;60.28;99929.16;5570009;31;34267;-57
2021/12/03 08:28:26;;;;;;;10.55;4.15;;;;;;;7.34;53.51;99928.91;5567561;32;34225;-57
2021/12/03 08:31:28;;;;;;;7.65;3.40;;;;;;;6.91;51.44;99931.87;5567990;32;33739;-57
2021/12/03 08:34:31;;;;;;;10.90;3.75;;;;;;;6.47;50.88;99940.34;5561538;32;33709;-57
2021/12/03 08:37:33;;;;;;;6.50;3.25;;;;;;;6.20;51.74;99947.75;5569966;31;34209;-57
2021/12/03 08:40:35;;;;;;;8.70;3.00;;;;;;;6.06;54.66;99934.09;5575197;31;33725;-57
2021/12/03 08:43:38;;;;;;;7.37;3.17;;;;;;;6.04;53.16;99942.38;5568151;32;33586;-56
2021/12/03 08:46:40;;;;;;;5.60;2.85;;;;;;;5.79;52.05;99963.50;5568501;31;33597;-57
2021/12/03 08:49:54;;;;;;;6.62;2.58;;;;;;;6.00;51.28;99962.56;5567992;32;33669;-57
2021/12/03 08:56:09;;;;;;;6.25;2.80;;;;;;;5.69;52.64;99982.06;5564298;32;34393;-57
2021/12/03 08:59:15;;;;;;;6.10;2.80;;;;;;;5.86;52.64;99985.34;5558849;32;33656;-57
2021/12/03 09:02:17;;;;;;;8.73;3.22;;;;;;;5.69;51.10;99995.34;5550215;32;33599;-57
2021/12/03 09:05:20;;;;;;;7.30;3.17;;;;;;;5.80;52.05;99987.19;5557811;31;33709;-57
2021/12/03 09:08:22;;;;;;;7.53;2.78;;;;;;;5.69;49.96;99995.34;5548494;32;34273;-57
2021/12/03 09:11:25;;;;;;;6.18;2.80;;;;;;;5.70;50.48;100005.75;5553510;32;34321;-57
2021/12/03 09:14:35;;;;;;;6.93;2.53;;;;;;;5.86;50.37;100012.75;5567791;32;33576;-57
2021/12/03 09:17:57;;;;;;;6.43;3.37;;;;;;;6.17;54.32;100009.47;5561631;32;33429;-57
2021/12/03 09:24:09;;;;;;;5.03;2.70;;;;;;;6.32;47.69;100025.50;5573777;31;33829;-57
2021/12/03 09:27:11;;;;;;;5.75;2.70;;;;;;;6.24;48.37;100031.34;5551677;31;33712;-57
2021/12/03 09:30:15;;;;;;;6.87;2.85;;;;;;;6.15;53.79;100032.88;5570759;31;34313;-57
2021/12/03 09:33:19;;;;;;;5.62;2.60;;;;;;;6.16;50.26;100040.63;5556555;31;34168;-57
2021/12/03 09:36:22;;;;;;;6.70;2.58;;;;;;;6.66;54.90;100028.56;5567203;31;34088;-57
2021/12/03 09:39:24;;;;;;;7.15;3.12;;;;;;;6.16;47.21;100039.81;5548775;31;33497;-57
2021/12/03 09:42:27;;;;;;;9.05;2.95;;;;;;;6.38;50.40;100039.63;5564737;31;34310;-57
2021/12/03 09:45:29;;;;;;;4.75;2.37;;;;;;;6.40;54.02;100032.22;5562050;31;33750;-57
2021/12/03 09:54:54;;;;;;;9.40;3.00;;;;;;;6.11;46.75;100044.03;5582118;31;34491;-57
2021/12/03 09:58:35;;;;;;;8.15;2.42;;;;;;;6.09;47.86;100040.84;5558846;32;34061;-57
2021/12/03 10:02:06;;;;;;;4.97;2.65;;;;;;;6.65;46.69;100037.59;5579493;31;33634;-57
2021/12/03 10:18:58;;;;;;;5.93;2.78;;;;;;;6.65;47.43;100060.78;5562738;31;33857;-57
2021/12/03 10:26:24;;;;;;;6.07;2.60;;;;;;;6.40;48.02;100059.62;5556834;32;36631;-57
2021/12/03 10:38:36;;;;;;;7.15;3.35;;;;;;;6.64;49.52;100072.50;5549953;32;33884;-57
2021/12/03 10:42:39;;;;;;;8.48;3.37;;;;;;;6.74;48.68;100072.53;5549582;32;34451;-57
2021/12/03 10:45:38;;;;;;;6.18;3.00;;;;;;;6.38;47.54;100076.91;5564969;31;34597;-57
2021/12/03 10:48:49;;;;;;;;;;;;;;;6.69;49.64;100081.31;5553855;32;33673;-57
2021/12/03 10:52:06;;;;;;;7.25;2.95;;;;;;;6.54;49.41;100071.37;5573391;31;33851;-57
2021/12/03 10:55:42;;;;;;;;;;;;;;;7.02;53.84;100080.06;5568883;32;33595;-57
2021/12/03 10:59:07;;;;;;;6.43;2.92;;;;;;;6.78;47.06;100090.38;5568219;31;35208;-57
2021/12/03 11:06:12;;;;;;;5.50;3.00;;;;;;;6.65;45.64;100100.72;5555192;31;33986;-57
2021/12/03 11:27:26;;;;;;;5.78;2.83;;;;;;;6.23;47.19;100113.06;5568840;31;33840;-57
2021/12/03 11:39:48;;;;;;;5.47;2.22;;;;;;;6.19;45.98;100124.47;5574603;31;33629;-57
2021/12/03 12:02:29;;;;;;;8.57;3.33;;;;;;;6.07;45.22;100151.28;5497312;31;33589;-57
2021/12/03 12:09:03;;;;;;;6.07;2.90;;;;;;;6.49;46.92;100151.28;5558306;32;33654;-57
2021/12/03 13:10:31;;;;;;;6.20;2.95;;;;;;;6.16;47.52;100189.69;5549760;32;32117;-57
2021/12/03 13:20:31;;;;;;;7.97;3.42;;;;;;;6.23;44.68;100189.44;5547918;32;34477;-57
2021/12/03 14:47:46;;;;;;;7.60;3.40;;;;;;;7.26;46.15;100312.34;5549343;32;33309;-57
2021/12/03 14:51:08;;;;;;;6.22;3.65;;;;;;;7.30;45.46;100301.94;5549261;32;33421;-57
2021/12/03 14:54:40;;;;;;;7.05;3.42;;;;;;;7.37;48.19;100294.50;5549232;32;34476;-57
2021/12/03 14:57:45;;;;;;;6.90;3.40;;;;;;;7.24;49.33;100305.66;5549015;32;34168;-57
2021/12/03 15:01:14;;;;;;;9.63;3.50;;;;;;;7.12;50.77;100308.53;5549448;32;33606;-57
2021/12/03 15:04:34;;;;;;;12.00;4.10;;;;;;;7.13;49.06;100312.00;5549427;32;34445;-57
2021/12/03 15:07:43;;;;;;;13.32;3.92;;;;;;;7.09;48.30;100316.25;5549553;32;33756;-57
2021/12/03 15:11:32;;;;;;;6.15;3.50;;;;;;;7.05;50.41;100330.09;5550080;32;33622;-57
2021/12/03 15:21:42;;;;;;;7.28;2.80;;;;;;;7.00;50.95;100338.03;5549473;32;33607;-57
2021/12/03 15:31:29;;;;;;;10.20;2.90;;;;;;;6.90;43.95;100347.84;5549842;32;33668;-57
2021/12/03 16:04:44;;;;;;;5.85;3.10;;;;;;;6.72;50.48;100367.69;5549228;32;33663;-57
